sensor_id;sensor_type;location;lat;lon;timestamp;pressure;altitude;pressure_sealevel;temperature;humidity
49645;BME280;36494;50.730;-1.932;2023-08-20T00:01:09;101466.60;;;17.51;100.00
49645;BME280;36494;50.730;-1.932;2023-08-20T00:03:33;101463.33;;;17.55;100.00
49645;BME280;36494;50.730;-1.932;2023-08-20T00:05:58;101461.75;;;17.47;100.00
49645;BME280;36494;50.730;-1.932;2023-08-20T00:08:24;101466.81;;;17.47;100.00
49645;BME280;36494;50.730;-1.932;2023-08-20T00:10:49;101469.44;;;17.49;100.00
49645;BME280;36494;50.730;-1.932;2023-08-20T00:13:15;101469.98;;;17.51;100.00
49645;BME280;36494;50.730;-1.932;2023-08-20T00:15:41;101473.19;;;17.44;100.00
49645;BME280;36494;50.730;-1.932;2023-08-20T00:18:06;101476.05;;;17.41;100.00
49645;BME280;36494;50.730;-1.932;2023-08-20T00:20:31;101480.69;;;17.44;100.00
49645;BME280;36494;50.730;-1.932;2023-08-20T00:22:57;101479.83;;;17.48;100.00
49645;BME280;36494;50.730;-1.932;2023-08-20T00:25:23;101479.71;;;17.35;100.00
49645;BME280;36494;50.730;-1.932;2023-08-20T00:27:48;101478.05;;;17.41;100.00
49645;BME280;36494;50.730;-1.932;2023-08-20T00:30:13;101481.67;;;17.44;100.00
49645;BME280;36494;50.730;-1.932;2023-08-20T00:32:39;101482.36;;;17.35;100.00
49645;BME280;36494;50.730;-1.932;2023-08-20T00:35:05;101483.89;;;17.43;100.00
49645;BME280;36494;50.730;-1.932;2023-08-20T00:37:31;101486.39;;;17.39;100.00
49645;BME280;36494;50.730;-1.932;2023-08-20T00:39:56;101489.69;;;17.46;100.00
49645;BME280;36494;50.730;-1.932;2023-08-20T00:42:22;101492.69;;;17.47;100.00
49645;BME280;36494;50.730;-1.932;2023-08-20T00:44:47;101488.48;;;17.49;100.00
49645;BME280;36494;50.730;-1.932;2023-08-20T00:47:13;101489.06;;;17.48;100.00
49645;BME280;36494;50.730;-1.932;2023-08-20T00:49:38;101491.31;;;17.48;100.00
49645;BME280;36494;50.730;-1.932;2023-08-20T00:52:04;101497.61;;;17.57;100.00
49645;BME280;36494;50.730;-1.932;2023-08-20T00:54:29;101505.73;;;17.54;100.00
49645;BME280;36494;50.730;-1.932;2023-08-20T00:56:54;101508.02;;;17.57;100.00
49645;BME280;36494;50.730;-1.932;2023-08-20T00:59:20;101505.95;;;17.56;100.00
49645;BME280;36494;50.730;-1.932;2023-08-20T01:01:45;101511.41;;;17.54;100.00
49645;BME280;36494;50.730;-1.932;2023-08-20T01:04:11;101511.88;;;17.50;100.00
49645;BME280;36494;50.730;-1.932;2023-08-20T01:06:54;101513.89;;;17.49;100.00
49645;BME280;36494;50.730;-1.932;2023-08-20T01:09:07;101511.66;;;17.60;100.00
49645;BME280;36494;50.730;-1.932;2023-08-20T01:11:30;101510.35;;;17.63;100.00
49645;BME280;36494;50.730;-1.932;2023-08-20T01:13:54;101506.26;;;17.63;100.00
49645;BME280;36494;50.730;-1.932;2023-08-20T01:16:18;101507.37;;;17.59;100.00
49645;BME280;36494;50.730;-1.932;2023-08-20T01:18:43;101508.80;;;17.62;100.00
49645;BME280;36494;50.730;-1.932;2023-08-20T01:21:23;101509.41;;;17.65;100.00
49645;BME280;36494;50.730;-1.932;2023-08-20T01:23:53;101509.63;;;17.63;100.00
49645;BME280;36494;50.730;-1.932;2023-08-20T01:26:20;101511.23;;;17.61;100.00
49645;BME280;36494;50.730;-1.932;2023-08-20T01:28:28;101509.41;;;17.61;100.00
49645;BME280;36494;50.730;-1.932;2023-08-20T01:30:53;101512.63;;;17.52;100.00
49645;BME280;36494;50.730;-1.932;2023-08-20T01:33:18;101513.17;;;17.52;100.00
49645;BME280;36494;50.730;-1.932;2023-08-20T01:35:43;101516.22;;;17.44;100.00
49645;BME280;36494;50.730;-1.932;2023-08-20T01:38:09;101521.57;;;17.48;100.00
49645;BME280;36494;50.730;-1.932;2023-08-20T01:40:34;101524.59;;;17.49;100.00
49645;BME280;36494;50.730;-1.932;2023-08-20T01:43:00;101525.50;;;17.51;100.00
49645;BME280;36494;50.730;-1.932;2023-08-20T01:45:25;101523.16;;;17.48;100.00
49645;BME280;36494;50.730;-1.932;2023-08-20T01:47:51;101520.62;;;17.55;100.00
49645;BME280;36494;50.730;-1.932;2023-08-20T01:50:16;101524.74;;;17.61;100.00
49645;BME280;36494;50.730;-1.932;2023-08-20T01:52:42;101524.01;;;17.59;100.00
49645;BME280;36494;50.730;-1.932;2023-08-20T01:55:08;101519.86;;;17.57;100.00
49645;BME280;36494;50.730;-1.932;2023-08-20T01:57:33;101523.12;;;17.41;100.00
49645;BME280;36494;50.730;-1.932;2023-08-20T01:59:58;101521.11;;;17.41;100.00
49645;BME280;36494;50.730;-1.932;2023-08-20T02:02:24;101520.19;;;17.36;100.00
49645;BME280;36494;50.730;-1.932;2023-08-20T02:04:50;101518.90;;;17.34;100.00
49645;BME280;36494;50.730;-1.932;2023-08-20T02:07:15;101517.25;;;17.43;100.00
49645;BME280;36494;50.730;-1.932;2023-08-20T02:09:40;101515.86;;;17.43;100.00
49645;BME280;36494;50.730;-1.932;2023-08-20T02:12:06;101515.37;;;17.44;100.00
49645;BME280;36494;50.730;-1.932;2023-08-20T02:14:31;101514.52;;;17.37;100.00
49645;BME280;36494;50.730;-1.932;2023-08-20T02:16:57;101514.70;;;17.45;100.00
49645;BME280;36494;50.730;-1.932;2023-08-20T02:19:23;101515.38;;;17.43;100.00
49645;BME280;36494;50.730;-1.932;2023-08-20T02:21:48;101518.80;;;17.38;100.00
49645;BME280;36494;50.730;-1.932;2023-08-20T02:24:14;101517.97;;;17.34;100.00
49645;BME280;36494;50.730;-1.932;2023-08-20T02:26:39;101519.81;;;17.41;100.00
49645;BME280;36494;50.730;-1.932;2023-08-20T02:29:05;101518.28;;;17.50;100.00
49645;BME280;36494;50.730;-1.932;2023-08-20T02:31:31;101520.79;;;17.45;100.00
49645;BME280;36494;50.730;-1.932;2023-08-20T02:33:56;101523.19;;;17.46;100.00
49645;BME280;36494;50.730;-1.932;2023-08-20T02:36:22;101522.11;;;17.53;100.00
49645;BME280;36494;50.730;-1.932;2023-08-20T02:38:48;101520.85;;;17.44;100.00
49645;BME280;36494;50.730;-1.932;2023-08-20T02:41:14;101519.32;;;17.53;100.00
49645;BME280;36494;50.730;-1.932;2023-08-20T02:43:40;101521.59;;;17.56;100.00
49645;BME280;36494;50.730;-1.932;2023-08-20T02:46:05;101521.71;;;17.60;100.00
49645;BME280;36494;50.730;-1.932;2023-08-20T02:48:31;101520.15;;;17.59;100.00
49645;BME280;36494;50.730;-1.932;2023-08-20T02:50:57;101513.84;;;17.56;100.00
49645;BME280;36494;50.730;-1.932;2023-08-20T02:53:22;101513.63;;;17.42;100.00
49645;BME280;36494;50.730;-1.932;2023-08-20T02:55:47;101514.07;;;17.44;100.00
49645;BME280;36494;50.730;-1.932;2023-08-20T02:58:13;101514.10;;;17.36;100.00
49645;BME280;36494;50.730;-1.932;2023-08-20T03:00:38;101513.25;;;17.32;100.00
49645;BME280;36494;50.730;-1.932;2023-08-20T03:03:04;101510.77;;;17.28;100.00
49645;BME280;36494;50.730;-1.932;2023-08-20T03:05:30;101510.92;;;17.31;100.00
49645;BME280;36494;50.730;-1.932;2023-08-20T03:07:55;101516.11;;;17.22;100.00
49645;BME280;36494;50.730;-1.932;2023-08-20T03:10:20;101522.70;;;17.13;100.00
49645;BME280;36494;50.730;-1.932;2023-08-20T03:12:46;101526.88;;;17.06;100.00
49645;BME280;36494;50.730;-1.932;2023-08-20T03:15:11;101526.52;;;17.08;100.00
49645;BME280;36494;50.730;-1.932;2023-08-20T03:17:37;101527.46;;;17.06;100.00
49645;BME280;36494;50.730;-1.932;2023-08-20T03:20:02;101524.50;;;16.98;100.00
49645;BME280;36494;50.730;-1.932;2023-08-20T03:22:27;101523.90;;;16.93;100.00
49645;BME280;36494;50.730;-1.932;2023-08-20T03:24:53;101521.39;;;16.91;100.00
49645;BME280;36494;50.730;-1.932;2023-08-20T03:27:19;101525.09;;;16.92;100.00
49645;BME280;36494;50.730;-1.932;2023-08-20T03:29:44;101530.05;;;16.79;100.00
49645;BME280;36494;50.730;-1.932;2023-08-20T03:32:09;101530.31;;;16.65;100.00
49645;BME280;36494;50.730;-1.932;2023-08-20T03:34:34;101531.49;;;16.66;100.00
49645;BME280;36494;50.730;-1.932;2023-08-20T03:37:01;101532.91;;;16.63;100.00
49645;BME280;36494;50.730;-1.932;2023-08-20T03:39:26;101531.97;;;16.67;100.00
49645;BME280;36494;50.730;-1.932;2023-08-20T03:41:52;101533.22;;;16.69;100.00
49645;BME280;36494;50.730;-1.932;2023-08-20T03:44:16;101536.56;;;16.72;100.00
49645;BME280;36494;50.730;-1.932;2023-08-20T03:46:41;101533.10;;;16.75;100.00
49645;BME280;36494;50.730;-1.932;2023-08-20T03:49:06;101533.24;;;16.79;100.00
49645;BME280;36494;50.730;-1.932;2023-08-20T03:51:32;101533.08;;;16.59;100.00
49645;BME280;36494;50.730;-1.932;2023-08-20T03:53:57;101532.07;;;16.61;100.00
49645;BME280;36494;50.730;-1.932;2023-08-20T03:56:23;101534.01;;;16.58;100.00
49645;BME280;36494;50.730;-1.932;2023-08-20T03:58:48;101536.70;;;16.54;100.00
49645;BME280;36494;50.730;-1.932;2023-08-20T04:01:14;101545.10;;;16.52;100.00
49645;BME280;36494;50.730;-1.932;2023-08-20T04:03:39;101549.49;;;16.58;100.00
49645;BME280;36494;50.730;-1.932;2023-08-20T04:06:04;101550.87;;;16.64;100.00
49645;BME280;36494;50.730;-1.932;2023-08-20T04:08:29;101553.95;;;16.65;100.00
49645;BME280;36494;50.730;-1.932;2023-08-20T04:10:55;101555.23;;;16.67;100.00
49645;BME280;36494;50.730;-1.932;2023-08-20T04:13:21;101560.69;;;16.71;100.00
49645;BME280;36494;50.730;-1.932;2023-08-20T04:15:46;101565.26;;;16.56;100.00
49645;BME280;36494;50.730;-1.932;2023-08-20T04:18:11;101566.70;;;16.55;100.00
49645;BME280;36494;50.730;-1.932;2023-08-20T04:20:37;101568.13;;;16.64;100.00
49645;BME280;36494;50.730;-1.932;2023-08-20T04:23:02;101568.16;;;16.60;100.00
49645;BME280;36494;50.730;-1.932;2023-08-20T04:25:27;101570.34;;;16.63;100.00
49645;BME280;36494;50.730;-1.932;2023-08-20T04:27:52;101570.40;;;16.67;100.00
49645;BME280;36494;50.730;-1.932;2023-08-20T04:30:18;101571.95;;;16.72;100.00
49645;BME280;36494;50.730;-1.932;2023-08-20T04:32:43;101574.22;;;16.75;100.00
49645;BME280;36494;50.730;-1.932;2023-08-20T04:35:09;101575.87;;;16.67;100.00
49645;BME280;36494;50.730;-1.932;2023-08-20T04:37:35;101577.90;;;16.72;100.00
49645;BME280;36494;50.730;-1.932;2023-08-20T04:40:00;101581.39;;;16.69;100.00
49645;BME280;36494;50.730;-1.932;2023-08-20T04:42:25;101582.29;;;16.76;100.00
49645;BME280;36494;50.730;-1.932;2023-08-20T04:44:51;101589.94;;;16.72;100.00
49645;BME280;36494;50.730;-1.932;2023-08-20T04:47:16;101588.87;;;16.79;100.00
49645;BME280;36494;50.730;-1.932;2023-08-20T04:49:42;101596.63;;;16.73;100.00
49645;BME280;36494;50.730;-1.932;2023-08-20T04:52:07;101599.55;;;16.70;100.00
49645;BME280;36494;50.730;-1.932;2023-08-20T04:54:32;101601.40;;;16.73;100.00
49645;BME280;36494;50.730;-1.932;2023-08-20T04:56:57;101599.17;;;16.79;100.00
49645;BME280;36494;50.730;-1.932;2023-08-20T04:59:23;101599.96;;;16.76;100.00
49645;BME280;36494;50.730;-1.932;2023-08-20T05:01:48;101603.85;;;16.76;100.00
49645;BME280;36494;50.730;-1.932;2023-08-20T05:04:14;101608.39;;;16.76;100.00
49645;BME280;36494;50.730;-1.932;2023-08-20T05:06:39;101613.77;;;16.78;100.00
49645;BME280;36494;50.730;-1.932;2023-08-20T05:09:05;101610.54;;;16.80;100.00
49645;BME280;36494;50.730;-1.932;2023-08-20T05:11:30;101608.71;;;16.78;100.00
49645;BME280;36494;50.730;-1.932;2023-08-20T05:13:56;101615.38;;;16.69;100.00
49645;BME280;36494;50.730;-1.932;2023-08-20T05:16:21;101616.72;;;16.75;100.00
49645;BME280;36494;50.730;-1.932;2023-08-20T05:18:47;101617.52;;;16.72;100.00
49645;BME280;36494;50.730;-1.932;2023-08-20T05:21:12;101620.22;;;16.75;100.00
49645;BME280;36494;50.730;-1.932;2023-08-20T05:23:37;101621.32;;;16.71;100.00
49645;BME280;36494;50.730;-1.932;2023-08-20T05:26:03;101621.26;;;16.74;100.00
49645;BME280;36494;50.730;-1.932;2023-08-20T05:28:28;101621.35;;;16.74;100.00
49645;BME280;36494;50.730;-1.932;2023-08-20T05:30:54;101620.98;;;16.74;100.00
49645;BME280;36494;50.730;-1.932;2023-08-20T05:33:18;101629.10;;;16.75;100.00
49645;BME280;36494;50.730;-1.932;2023-08-20T05:35:44;101627.32;;;16.62;100.00
49645;BME280;36494;50.730;-1.932;2023-08-20T05:38:10;101628.41;;;16.60;100.00
49645;BME280;36494;50.730;-1.932;2023-08-20T05:40:36;101631.48;;;16.54;100.00
49645;BME280;36494;50.730;-1.932;2023-08-20T05:43:01;101633.81;;;16.63;100.00
49645;BME280;36494;50.730;-1.932;2023-08-20T05:45:26;101635.95;;;16.68;100.00
49645;BME280;36494;50.730;-1.932;2023-08-20T05:47:52;101633.54;;;16.63;100.00
49645;BME280;36494;50.730;-1.932;2023-08-20T05:50:17;101636.88;;;16.69;100.00
49645;BME280;36494;50.730;-1.932;2023-08-20T05:52:42;101638.61;;;16.70;100.00
49645;BME280;36494;50.730;-1.932;2023-08-20T05:55:08;101641.16;;;16.64;100.00
49645;BME280;36494;50.730;-1.932;2023-08-20T05:57:35;101642.65;;;16.70;100.00
49645;BME280;36494;50.730;-1.932;2023-08-20T06:00:00;101642.05;;;16.73;100.00
49645;BME280;36494;50.730;-1.932;2023-08-20T06:02:25;101645.54;;;16.61;100.00
49645;BME280;36494;50.730;-1.932;2023-08-20T06:04:50;101644.62;;;16.68;100.00
49645;BME280;36494;50.730;-1.932;2023-08-20T06:07:15;101642.78;;;16.71;100.00
49645;BME280;36494;50.730;-1.932;2023-08-20T06:09:41;101641.25;;;16.69;100.00
49645;BME280;36494;50.730;-1.932;2023-08-20T06:12:06;101640.76;;;16.65;100.00
49645;BME280;36494;50.730;-1.932;2023-08-20T06:14:32;101640.64;;;16.65;100.00
49645;BME280;36494;50.730;-1.932;2023-08-20T06:16:57;101640.46;;;16.70;100.00
49645;BME280;36494;50.730;-1.932;2023-08-20T06:19:23;101643.81;;;16.69;100.00
49645;BME280;36494;50.730;-1.932;2023-08-20T06:21:48;101648.78;;;16.76;100.00
49645;BME280;36494;50.730;-1.932;2023-08-20T06:24:14;101652.72;;;16.74;100.00
49645;BME280;36494;50.730;-1.932;2023-08-20T06:26:39;101654.72;;;16.78;100.00
49645;BME280;36494;50.730;-1.932;2023-08-20T06:29:05;101658.38;;;16.79;100.00
49645;BME280;36494;50.730;-1.932;2023-08-20T06:31:30;101652.95;;;16.83;100.00
49645;BME280;36494;50.730;-1.932;2023-08-20T06:33:55;101651.85;;;16.77;100.00
49645;BME280;36494;50.730;-1.932;2023-08-20T06:36:21;101652.99;;;16.81;100.00
49645;BME280;36494;50.730;-1.932;2023-08-20T06:38:46;101656.15;;;16.81;100.00
49645;BME280;36494;50.730;-1.932;2023-08-20T06:41:12;101652.99;;;16.85;100.00
49645;BME280;36494;50.730;-1.932;2023-08-20T06:43:38;101657.17;;;16.94;100.00
49645;BME280;36494;50.730;-1.932;2023-08-20T06:46:03;101655.22;;;17.00;100.00
49645;BME280;36494;50.730;-1.932;2023-08-20T06:48:28;101655.90;;;17.09;100.00
49645;BME280;36494;50.730;-1.932;2023-08-20T06:50:53;101653.10;;;17.14;100.00
49645;BME280;36494;50.730;-1.932;2023-08-20T06:53:19;101656.25;;;17.13;100.00
49645;BME280;36494;50.730;-1.932;2023-08-20T06:55:44;101652.72;;;17.11;100.00
49645;BME280;36494;50.730;-1.932;2023-08-20T06:58:10;101652.22;;;17.21;100.00
49645;BME280;36494;50.730;-1.932;2023-08-20T07:00:35;101656.23;;;17.28;100.00
49645;BME280;36494;50.730;-1.932;2023-08-20T07:03:01;101657.42;;;17.25;100.00
49645;BME280;36494;50.730;-1.932;2023-08-20T07:05:26;101661.91;;;17.28;100.00
49645;BME280;36494;50.730;-1.932;2023-08-20T07:07:52;101665.20;;;17.28;100.00
49645;BME280;36494;50.730;-1.932;2023-08-20T07:10:17;101669.49;;;17.35;100.00
49645;BME280;36494;50.730;-1.932;2023-08-20T07:12:42;101671.25;;;17.45;100.00
49645;BME280;36494;50.730;-1.932;2023-08-20T07:15:09;101672.80;;;17.44;100.00
49645;BME280;36494;50.730;-1.932;2023-08-20T07:17:34;101677.86;;;17.48;100.00
49645;BME280;36494;50.730;-1.932;2023-08-20T07:19:59;101677.91;;;17.59;100.00
49645;BME280;36494;50.730;-1.932;2023-08-20T07:22:24;101680.87;;;17.64;100.00
49645;BME280;36494;50.730;-1.932;2023-08-20T07:24:50;101681.69;;;17.67;100.00
49645;BME280;36494;50.730;-1.932;2023-08-20T07:27:16;101687.64;;;17.52;100.00
49645;BME280;36494;50.730;-1.932;2023-08-20T07:29:41;101686.94;;;17.69;100.00
49645;BME280;36494;50.730;-1.932;2023-08-20T07:32:07;101691.41;;;17.72;100.00
49645;BME280;36494;50.730;-1.932;2023-08-20T07:34:32;101692.77;;;17.83;100.00
49645;BME280;36494;50.730;-1.932;2023-08-20T07:36:58;101693.31;;;17.72;100.00
49645;BME280;36494;50.730;-1.932;2023-08-20T07:39:23;101691.30;;;17.70;100.00
49645;BME280;36494;50.730;-1.932;2023-08-20T07:41:48;101693.62;;;17.75;100.00
49645;BME280;36494;50.730;-1.932;2023-08-20T07:44:14;101696.78;;;17.64;100.00
49645;BME280;36494;50.730;-1.932;2023-08-20T07:46:39;101694.78;;;17.71;100.00
49645;BME280;36494;50.730;-1.932;2023-08-20T07:49:04;101696.50;;;17.77;100.00
49645;BME280;36494;50.730;-1.932;2023-08-20T07:51:29;101695.52;;;17.78;100.00
49645;BME280;36494;50.730;-1.932;2023-08-20T07:53:54;101695.74;;;17.70;100.00
49645;BME280;36494;50.730;-1.932;2023-08-20T07:56:20;101695.01;;;17.82;100.00
49645;BME280;36494;50.730;-1.932;2023-08-20T07:58:45;101699.88;;;17.90;100.00
49645;BME280;36494;50.730;-1.932;2023-08-20T08:01:10;101704.15;;;18.03;100.00
49645;BME280;36494;50.730;-1.932;2023-08-20T08:03:36;101700.67;;;18.14;100.00
49645;BME280;36494;50.730;-1.932;2023-08-20T08:06:01;101705.43;;;18.14;100.00
49645;BME280;36494;50.730;-1.932;2023-08-20T08:08:26;101705.32;;;18.22;100.00
49645;BME280;36494;50.730;-1.932;2023-08-20T08:10:51;101709.55;;;18.20;100.00
49645;BME280;36494;50.730;-1.932;2023-08-20T08:13:21;101712.58;;;18.19;100.00
49645;BME280;36494;50.730;-1.932;2023-08-20T08:15:42;101712.20;;;18.16;100.00
49645;BME280;36494;50.730;-1.932;2023-08-20T08:18:08;101711.72;;;18.25;100.00
49645;BME280;36494;50.730;-1.932;2023-08-20T08:20:33;101714.47;;;18.36;100.00
49645;BME280;36494;50.730;-1.932;2023-08-20T08:22:59;101718.89;;;18.38;100.00
49645;BME280;36494;50.730;-1.932;2023-08-20T08:25:24;101720.51;;;18.47;100.00
49645;BME280;36494;50.730;-1.932;2023-08-20T08:27:49;101724.52;;;18.59;100.00
49645;BME280;36494;50.730;-1.932;2023-08-20T08:30:14;101720.50;;;18.60;100.00
49645;BME280;36494;50.730;-1.932;2023-08-20T08:32:40;101719.34;;;18.61;100.00
49645;BME280;36494;50.730;-1.932;2023-08-20T08:35:06;101716.89;;;18.65;100.00
49645;BME280;36494;50.730;-1.932;2023-08-20T08:37:30;101719.16;;;18.64;100.00
49645;BME280;36494;50.730;-1.932;2023-08-20T08:39:56;101721.91;;;18.69;100.00
49645;BME280;36494;50.730;-1.932;2023-08-20T08:42:22;101724.07;;;18.69;100.00
49645;BME280;36494;50.730;-1.932;2023-08-20T08:44:46;101730.53;;;18.70;100.00
49645;BME280;36494;50.730;-1.932;2023-08-20T08:47:12;101733.12;;;18.76;100.00
49645;BME280;36494;50.730;-1.932;2023-08-20T08:49:37;101737.85;;;18.80;100.00
49645;BME280;36494;50.730;-1.932;2023-08-20T08:52:04;101737.88;;;18.60;100.00
49645;BME280;36494;50.730;-1.932;2023-08-20T08:54:28;101737.68;;;18.66;100.00
49645;BME280;36494;50.730;-1.932;2023-08-20T08:56:53;101738.65;;;18.72;100.00
49645;BME280;36494;50.730;-1.932;2023-08-20T08:59:19;101740.67;;;18.82;100.00
49645;BME280;36494;50.730;-1.932;2023-08-20T09:01:44;101747.34;;;18.81;100.00
49645;BME280;36494;50.730;-1.932;2023-08-20T09:04:10;101749.20;;;18.86;100.00
49645;BME280;36494;50.730;-1.932;2023-08-20T09:06:45;101752.40;;;18.94;100.00
49645;BME280;36494;50.730;-1.932;2023-08-20T09:09:04;101751.16;;;18.90;100.00
49645;BME280;36494;50.730;-1.932;2023-08-20T09:11:34;101751.40;;;18.95;100.00
49645;BME280;36494;50.730;-1.932;2023-08-20T09:13:51;101754.55;;;18.81;100.00
49645;BME280;36494;50.730;-1.932;2023-08-20T09:16:17;101757.14;;;18.98;100.00
49645;BME280;36494;50.730;-1.932;2023-08-20T09:18:44;101751.45;;;18.95;100.00
49645;BME280;36494;50.730;-1.932;2023-08-20T09:21:08;101749.37;;;18.89;100.00
49645;BME280;36494;50.730;-1.932;2023-08-20T09:23:33;101751.18;;;18.97;100.00
49645;BME280;36494;50.730;-1.932;2023-08-20T09:26:02;101754.26;;;19.12;100.00
49645;BME280;36494;50.730;-1.932;2023-08-20T09:28:24;101752.28;;;19.02;100.00
49645;BME280;36494;50.730;-1.932;2023-08-20T09:30:56;101749.70;;;18.98;100.00
49645;BME280;36494;50.730;-1.932;2023-08-20T09:33:15;101750.82;;;19.12;100.00
49645;BME280;36494;50.730;-1.932;2023-08-20T09:35:48;101754.19;;;19.14;100.00
49645;BME280;36494;50.730;-1.932;2023-08-20T09:38:05;101745.63;;;19.19;100.00
49645;BME280;36494;50.730;-1.932;2023-08-20T09:40:31;101744.84;;;19.16;100.00
49645;BME280;36494;50.730;-1.932;2023-08-20T09:42:57;101744.06;;;19.25;100.00
49645;BME280;36494;50.730;-1.932;2023-08-20T09:45:21;101749.32;;;19.26;100.00
49645;BME280;36494;50.730;-1.932;2023-08-20T09:47:48;101751.98;;;19.20;100.00
49645;BME280;36494;50.730;-1.932;2023-08-20T09:50:12;101752.47;;;19.15;100.00
49645;BME280;36494;50.730;-1.932;2023-08-20T09:52:40;101757.06;;;19.09;100.00
49645;BME280;36494;50.730;-1.932;2023-08-20T09:55:08;101758.33;;;19.27;100.00
49645;BME280;36494;50.730;-1.932;2023-08-20T09:57:32;101758.38;;;19.37;100.00
49645;BME280;36494;50.730;-1.932;2023-08-20T09:59:54;101755.22;;;19.46;100.00
49645;BME280;36494;50.730;-1.932;2023-08-20T10:02:19;101754.52;;;19.64;100.00
49645;BME280;36494;50.730;-1.932;2023-08-20T10:04:45;101754.84;;;19.77;100.00
49645;BME280;36494;50.730;-1.932;2023-08-20T10:07:11;101755.84;;;19.85;100.00
49645;BME280;36494;50.730;-1.932;2023-08-20T10:09:37;101754.57;;;20.07;100.00
49645;BME280;36494;50.730;-1.932;2023-08-20T10:12:01;101755.13;;;19.93;100.00
49645;BME280;36494;50.730;-1.932;2023-08-20T10:14:26;101754.53;;;19.63;100.00
49645;BME280;36494;50.730;-1.932;2023-08-20T10:16:53;101754.23;;;19.71;100.00
49645;BME280;36494;50.730;-1.932;2023-08-20T10:19:16;101752.16;;;19.84;100.00
49645;BME280;36494;50.730;-1.932;2023-08-20T10:21:44;101749.00;;;19.84;100.00
49645;BME280;36494;50.730;-1.932;2023-08-20T10:24:07;101745.49;;;20.21;100.00
49645;BME280;36494;50.730;-1.932;2023-08-20T10:26:33;101749.53;;;20.31;100.00
49645;BME280;36494;50.730;-1.932;2023-08-20T10:31:25;101749.06;;;19.90;100.00
49645;BME280;36494;50.730;-1.932;2023-08-20T10:33:50;101751.72;;;20.15;100.00
49645;BME280;36494;50.730;-1.932;2023-08-20T10:36:15;101750.40;;;20.58;100.00
49645;BME280;36494;50.730;-1.932;2023-08-20T10:38:39;101750.50;;;20.59;100.00
49645;BME280;36494;50.730;-1.932;2023-08-20T10:41:06;101747.52;;;20.50;100.00
49645;BME280;36494;50.730;-1.932;2023-08-20T10:43:31;101745.61;;;20.52;100.00
49645;BME280;36494;50.730;-1.932;2023-08-20T10:46:05;101743.37;;;20.57;100.00
49645;BME280;36494;50.730;-1.932;2023-08-20T10:48:20;101741.73;;;20.86;100.00
49645;BME280;36494;50.730;-1.932;2023-08-20T10:50:45;101743.15;;;21.22;100.00
49645;BME280;36494;50.730;-1.932;2023-08-20T10:53:12;101739.83;;;21.48;100.00
49645;BME280;36494;50.730;-1.932;2023-08-20T10:55:35;101737.64;;;21.55;100.00
49645;BME280;36494;50.730;-1.932;2023-08-20T10:58:04;101740.52;;;21.59;100.00
49645;BME280;36494;50.730;-1.932;2023-08-20T11:00:26;101750.02;;;21.28;100.00
49645;BME280;36494;50.730;-1.932;2023-08-20T11:02:52;101749.88;;;21.34;100.00
49645;BME280;36494;50.730;-1.932;2023-08-20T11:05:17;101749.69;;;21.29;100.00
49645;BME280;36494;50.730;-1.932;2023-08-20T11:07:42;101750.07;;;21.51;100.00
49645;BME280;36494;50.730;-1.932;2023-08-20T11:10:07;101748.43;;;21.68;100.00
49645;BME280;36494;50.730;-1.932;2023-08-20T11:12:32;101752.86;;;21.65;100.00
49645;BME280;36494;50.730;-1.932;2023-08-20T11:15:00;101754.32;;;21.46;100.00
49645;BME280;36494;50.730;-1.932;2023-08-20T11:17:22;101749.51;;;21.59;100.00
49645;BME280;36494;50.730;-1.932;2023-08-20T11:19:48;101753.22;;;21.72;100.00
49645;BME280;36494;50.730;-1.932;2023-08-20T11:22:13;101752.96;;;21.51;100.00
49645;BME280;36494;50.730;-1.932;2023-08-20T11:24:41;101756.95;;;21.76;100.00
49645;BME280;36494;50.730;-1.932;2023-08-20T11:27:04;101755.24;;;21.69;100.00
49645;BME280;36494;50.730;-1.932;2023-08-20T11:29:29;101752.71;;;21.66;100.00
49645;BME280;36494;50.730;-1.932;2023-08-20T11:31:54;101755.49;;;21.60;100.00
49645;BME280;36494;50.730;-1.932;2023-08-20T11:34:19;101750.79;;;21.77;100.00
49645;BME280;36494;50.730;-1.932;2023-08-20T11:36:44;101743.60;;;22.08;100.00
49645;BME280;36494;50.730;-1.932;2023-08-20T11:39:09;101742.72;;;22.11;100.00
49645;BME280;36494;50.730;-1.932;2023-08-20T11:41:36;101743.50;;;22.20;100.00
49645;BME280;36494;50.730;-1.932;2023-08-20T11:44:00;101741.40;;;22.35;100.00
49645;BME280;36494;50.730;-1.932;2023-08-20T11:46:25;101742.37;;;22.53;100.00
49645;BME280;36494;50.730;-1.932;2023-08-20T11:48:59;101745.73;;;22.14;100.00
49645;BME280;36494;50.730;-1.932;2023-08-20T11:51:15;101746.14;;;21.73;100.00
49645;BME280;36494;50.730;-1.932;2023-08-20T11:53:41;101739.99;;;21.94;100.00
49645;BME280;36494;50.730;-1.932;2023-08-20T11:56:06;101737.05;;;22.41;100.00
49645;BME280;36494;50.730;-1.932;2023-08-20T11:58:31;101738.43;;;22.35;100.00
49645;BME280;36494;50.730;-1.932;2023-08-20T12:00:56;101742.82;;;22.47;100.00
49645;BME280;36494;50.730;-1.932;2023-08-20T12:03:21;101736.01;;;22.38;100.00
49645;BME280;36494;50.730;-1.932;2023-08-20T12:05:47;101737.98;;;22.72;100.00
49645;BME280;36494;50.730;-1.932;2023-08-20T12:08:15;101741.36;;;22.77;100.00
49645;BME280;36494;50.730;-1.932;2023-08-20T12:10:42;101744.68;;;22.53;100.00
49645;BME280;36494;50.730;-1.932;2023-08-20T12:13:02;101743.28;;;22.58;100.00
49645;BME280;36494;50.730;-1.932;2023-08-20T12:15:27;101742.99;;;22.69;100.00
49645;BME280;36494;50.730;-1.932;2023-08-20T12:18:00;101742.04;;;22.60;100.00
49645;BME280;36494;50.730;-1.932;2023-08-20T12:20:18;101740.21;;;22.80;100.00
49645;BME280;36494;50.730;-1.932;2023-08-20T12:22:43;101739.23;;;22.63;100.00